sensor_id;sensor_type;location;lat;lon;timestamp;P1;durP1;ratioP1;P2;durP2;ratioP2
17193;SDS011;8713;48.388;10.928;2023-07-02T05:08:11;1.40;;;1.15;;
17193;SDS011;8713;48.388;10.928;2023-07-02T05:09:41;2.50;;;1.40;;
17193;SDS011;8713;48.388;10.928;2023-07-02T05:11:01;4.03;;;1.50;;
17193;SDS011;8713;48.388;10.928;2023-07-02T05:12:10;3.85;;;1.50;;
17193;SDS011;8713;48.388;10.928;2023-07-02T05:13:19;2.33;;;1.20;;
17193;SDS011;8713;48.388;10.928;2023-07-02T05:14:29;2.90;;;1.40;;
17193;SDS011;8713;48.388;10.928;2023-07-02T05:15:39;1.42;;;1.25;;
17193;SDS011;8713;48.388;10.928;2023-07-02T05:16:49;2.20;;;1.27;;
17193;SDS011;8713;48.388;10.928;2023-07-02T05:17:58;2.15;;;1.50;;
17193;SDS011;8713;48.388;10.928;2023-07-02T05:19:08;2.08;;;1.13;;
17193;SDS011;8713;48.388;10.928;2023-07-02T05:20:17;2.85;;;1.40;;
17193;SDS011;8713;48.388;10.928;2023-07-02T05:21:26;2.67;;;1.40;;
17193;SDS011;8713;48.388;10.928;2023-07-02T05:22:36;3.30;;;1.65;;
17193;SDS011;8713;48.388;10.928;2023-07-02T05:23:46;3.05;;;1.48;;
17193;SDS011;8713;48.388;10.928;2023-07-02T05:24:56;1.50;;;1.20;;
17193;SDS011;8713;48.388;10.928;2023-07-02T05:26:05;2.00;;;1.13;;
17193;SDS011;8713;48.388;10.928;2023-07-02T05:27:15;4.20;;;1.40;;
17193;SDS011;8713;48.388;10.928;2023-07-02T05:28:24;2.38;;;1.40;;
17193;SDS011;8713;48.388;10.928;2023-07-02T05:29:34;2.35;;;1.33;;
17193;SDS011;8713;48.388;10.928;2023-07-02T05:30:43;2.47;;;1.50;;
17193;SDS011;8713;48.388;10.928;2023-07-02T05:31:55;2.22;;;1.10;;
17193;SDS011;8713;48.388;10.928;2023-07-02T05:33:04;3.35;;;1.35;;
17193;SDS011;8713;48.388;10.928;2023-07-02T05:34:14;2.85;;;1.30;;
17193;SDS011;8713;48.388;10.928;2023-07-02T05:35:23;2.45;;;1.30;;
17193;SDS011;8713;48.388;10.928;2023-07-02T05:36:33;4.15;;;1.60;;
17193;SDS011;8713;48.388;10.928;2023-07-02T05:37:43;2.22;;;1.48;;
17193;SDS011;8713;48.388;10.928;2023-07-02T05:38:54;6.75;;;2.20;;
17193;SDS011;8713;48.388;10.928;2023-07-02T05:40:04;2.42;;;1.42;;
17193;SDS011;8713;48.388;10.928;2023-07-02T05:41:20;2.45;;;1.52;;
17193;SDS011;8713;48.388;10.928;2023-07-02T05:42:29;2.97;;;1.55;;
17193;SDS011;8713;48.388;10.928;2023-07-02T05:43:39;2.45;;;1.40;;
17193;SDS011;8713;48.388;10.928;2023-07-02T05:44:48;1.73;;;1.42;;
17193;SDS011;8713;48.388;10.928;2023-07-02T05:45:58;2.08;;;1.40;;
17193;SDS011;8713;48.388;10.928;2023-07-02T05:47:11;2.65;;;1.67;;
17193;SDS011;8713;48.388;10.928;2023-07-02T05:48:20;3.47;;;1.55;;
17193;SDS011;8713;48.388;10.928;2023-07-02T05:49:30;2.75;;;1.40;;
17193;SDS011;8713;48.388;10.928;2023-07-02T05:50:39;3.25;;;1.50;;
17193;SDS011;8713;48.388;10.928;2023-07-02T05:51:49;2.58;;;1.40;;
17193;SDS011;8713;48.388;10.928;2023-07-02T05:52:58;2.67;;;1.52;;
17193;SDS011;8713;48.388;10.928;2023-07-02T05:54:08;2.30;;;1.50;;
17193;SDS011;8713;48.388;10.928;2023-07-02T05:55:17;4.40;;;1.38;;
17193;SDS011;8713;48.388;10.928;2023-07-02T05:56:27;2.70;;;1.50;;
17193;SDS011;8713;48.388;10.928;2023-07-02T05:57:39;2.72;;;1.45;;
17193;SDS011;8713;48.388;10.928;2023-07-02T05:58:49;4.72;;;1.55;;
17193;SDS011;8713;48.388;10.928;2023-07-02T06:00:01;3.72;;;1.50;;
17193;SDS011;8713;48.388;10.928;2023-07-02T06:01:10;2.17;;;1.63;;
17193;SDS011;8713;48.388;10.928;2023-07-02T06:02:19;2.92;;;1.70;;
17193;SDS011;8713;48.388;10.928;2023-07-02T06:03:28;2.83;;;1.60;;
17193;SDS011;8713;48.388;10.928;2023-07-02T06:04:38;4.35;;;1.70;;
17193;SDS011;8713;48.388;10.928;2023-07-02T06:05:47;2.60;;;1.40;;
17193;SDS011;8713;48.388;10.928;2023-07-02T06:06:57;3.85;;;1.55;;
17193;SDS011;8713;48.388;10.928;2023-07-02T06:08:07;2.53;;;1.50;;
17193;SDS011;8713;48.388;10.928;2023-07-02T06:09:16;2.80;;;1.70;;
17193;SDS011;8713;48.388;10.928;2023-07-02T06:10:25;2.25;;;1.40;;
17193;SDS011;8713;48.388;10.928;2023-07-02T06:11:34;2.97;;;1.63;;
17193;SDS011;8713;48.388;10.928;2023-07-02T06:12:44;3.90;;;1.80;;
17193;SDS011;8713;48.388;10.928;2023-07-02T06:13:53;2.30;;;1.42;;
17193;SDS011;8713;48.388;10.928;2023-07-02T06:15:03;2.72;;;1.70;;
17193;SDS011;8713;48.388;10.928;2023-07-02T06:16:13;2.35;;;1.52;;
17193;SDS011;8713;48.388;10.928;2023-07-02T06:17:22;2.83;;;1.58;;
17193;SDS011;8713;48.388;10.928;2023-07-02T06:18:34;2.15;;;1.45;;
17193;SDS011;8713;48.388;10.928;2023-07-02T06:19:44;2.85;;;1.45;;
17193;SDS011;8713;48.388;10.928;2023-07-02T06:20:53;3.33;;;1.40;;
17193;SDS011;8713;48.388;10.928;2023-07-02T06:22:03;3.10;;;1.42;;
17193;SDS011;8713;48.388;10.928;2023-07-02T06:23:12;3.22;;;1.58;;
17193;SDS011;8713;48.388;10.928;2023-07-02T06:24:22;2.33;;;1.50;;
17193;SDS011;8713;48.388;10.928;2023-07-02T06:25:31;5.30;;;1.50;;
17193;SDS011;8713;48.388;10.928;2023-07-02T06:26:40;4.13;;;1.52;;
17193;SDS011;8713;48.388;10.928;2023-07-02T06:27:49;2.35;;;1.80;;
17193;SDS011;8713;48.388;10.928;2023-07-02T06:28:59;3.13;;;1.80;;
17193;SDS011;8713;48.388;10.928;2023-07-02T06:30:08;2.92;;;1.60;;
17193;SDS011;8713;48.388;10.928;2023-07-02T06:31:18;1.70;;;1.38;;
17193;SDS011;8713;48.388;10.928;2023-07-02T06:32:27;3.03;;;1.75;;
17193;SDS011;8713;48.388;10.928;2023-07-02T06:33:40;2.15;;;1.58;;
17193;SDS011;8713;48.388;10.928;2023-07-02T06:34:51;2.80;;;1.67;;
17193;SDS011;8713;48.388;10.928;2023-07-02T06:36:00;2.03;;;1.48;;
17193;SDS011;8713;48.388;10.928;2023-07-02T06:37:10;3.30;;;1.65;;
17193;SDS011;8713;48.388;10.928;2023-07-02T06:38:19;2.80;;;1.38;;
17193;SDS011;8713;48.388;10.928;2023-07-02T06:39:29;2.20;;;1.50;;
17193;SDS011;8713;48.388;10.928;2023-07-02T06:40:38;2.15;;;1.60;;
17193;SDS011;8713;48.388;10.928;2023-07-02T06:41:49;3.00;;;1.65;;
17193;SDS011;8713;48.388;10.928;2023-07-02T06:43:00;2.20;;;1.60;;
17193;SDS011;8713;48.388;10.928;2023-07-02T06:44:10;2.38;;;1.50;;
17193;SDS011;8713;48.388;10.928;2023-07-02T06:45:20;2.58;;;1.55;;
17193;SDS011;8713;48.388;10.928;2023-07-02T06:46:30;2.40;;;1.58;;
17193;SDS011;8713;48.388;10.928;2023-07-02T06:47:39;3.22;;;1.83;;
17193;SDS011;8713;48.388;10.928;2023-07-02T06:48:49;2.63;;;1.60;;
17193;SDS011;8713;48.388;10.928;2023-07-02T06:49:59;3.13;;;1.75;;
17193;SDS011;8713;48.388;10.928;2023-07-02T06:51:09;2.67;;;1.55;;
17193;SDS011;8713;48.388;10.928;2023-07-02T06:52:21;1.90;;;1.45;;
17193;SDS011;8713;48.388;10.928;2023-07-02T06:53:30;2.45;;;1.60;;
17193;SDS011;8713;48.388;10.928;2023-07-02T06:54:40;2.90;;;1.73;;
17193;SDS011;8713;48.388;10.928;2023-07-02T06:55:50;2.15;;;1.60;;
17193;SDS011;8713;48.388;10.928;2023-07-02T06:57:00;2.30;;;1.50;;
17193;SDS011;8713;48.388;10.928;2023-07-02T06:58:10;2.88;;;1.50;;
17193;SDS011;8713;48.388;10.928;2023-07-02T06:59:23;2.05;;;1.50;;
17193;SDS011;8713;48.388;10.928;2023-07-02T07:00:33;2.33;;;1.63;;
17193;SDS011;8713;48.388;10.928;2023-07-02T07:01:51;2.35;;;1.70;;
17193;SDS011;8713;48.388;10.928;2023-07-02T07:03:04;2.80;;;1.58;;
17193;SDS011;8713;48.388;10.928;2023-07-02T07:04:14;2.72;;;1.58;;
17193;SDS011;8713;48.388;10.928;2023-07-02T07:05:24;1.77;;;1.33;;
17193;SDS011;8713;48.388;10.928;2023-07-02T07:06:33;2.88;;;1.70;;
17193;SDS011;8713;48.388;10.928;2023-07-02T07:07:43;2.33;;;1.52;;
17193;SDS011;8713;48.388;10.928;2023-07-02T07:08:52;3.70;;;1.50;;
17193;SDS011;8713;48.388;10.928;2023-07-02T07:10:02;2.60;;;1.45;;
17193;SDS011;8713;48.388;10.928;2023-07-02T07:11:12;1.88;;;1.48;;
17193;SDS011;8713;48.388;10.928;2023-07-02T07:12:22;2.95;;;1.35;;
17193;SDS011;8713;48.388;10.928;2023-07-02T07:13:32;2.50;;;1.63;;
17193;SDS011;8713;48.388;10.928;2023-07-02T07:14:41;2.47;;;1.45;;
17193;SDS011;8713;48.388;10.928;2023-07-02T07:15:51;2.53;;;1.50;;
17193;SDS011;8713;48.388;10.928;2023-07-02T07:17:00;1.80;;;1.30;;
17193;SDS011;8713;48.388;10.928;2023-07-02T07:18:10;3.75;;;1.20;;
17193;SDS011;8713;48.388;10.928;2023-07-02T07:19:19;1.90;;;1.42;;
17193;SDS011;8713;48.388;10.928;2023-07-02T07:20:32;1.90;;;1.23;;
17193;SDS011;8713;48.388;10.928;2023-07-02T07:21:42;2.35;;;1.30;;
17193;SDS011;8713;48.388;10.928;2023-07-02T07:22:52;2.03;;;1.40;;
17193;SDS011;8713;48.388;10.928;2023-07-02T07:24:04;2.55;;;1.50;;
17193;SDS011;8713;48.388;10.928;2023-07-02T07:25:14;1.33;;;1.20;;
17193;SDS011;8713;48.388;10.928;2023-07-02T07:26:24;3.55;;;1.50;;
17193;SDS011;8713;48.388;10.928;2023-07-02T07:27:33;2.47;;;1.30;;
17193;SDS011;8713;48.388;10.928;2023-07-02T07:28:43;1.70;;;1.30;;
17193;SDS011;8713;48.388;10.928;2023-07-02T07:29:52;2.10;;;1.30;;
17193;SDS011;8713;48.388;10.928;2023-07-02T07:31:01;2.75;;;1.40;;
17193;SDS011;8713;48.388;10.928;2023-07-02T07:32:14;2.72;;;1.35;;
17193;SDS011;8713;48.388;10.928;2023-07-02T07:33:24;2.92;;;1.30;;
17193;SDS011;8713;48.388;10.928;2023-07-02T07:34:34;2.45;;;1.60;;
17193;SDS011;8713;48.388;10.928;2023-07-02T07:35:44;1.48;;;1.15;;
17193;SDS011;8713;48.388;10.928;2023-07-02T07:36:53;2.05;;;1.40;;
17193;SDS011;8713;48.388;10.928;2023-07-02T07:38:03;2.33;;;1.23;;
17193;SDS011;8713;48.388;10.928;2023-07-02T07:39:12;2.58;;;1.30;;
17193;SDS011;8713;48.388;10.928;2023-07-02T07:40:22;2.25;;;1.23;;
17193;SDS011;8713;48.388;10.928;2023-07-02T07:41:31;2.88;;;1.38;;
17193;SDS011;8713;48.388;10.928;2023-07-02T07:42:42;1.85;;;1.33;;
17193;SDS011;8713;48.388;10.928;2023-07-02T07:43:51;2.00;;;1.20;;
17193;SDS011;8713;48.388;10.928;2023-07-02T07:45:02;2.22;;;1.23;;
17193;SDS011;8713;48.388;10.928;2023-07-02T07:46:12;2.30;;;1.45;;
17193;SDS011;8713;48.388;10.928;2023-07-02T07:47:22;1.73;;;1.10;;
17193;SDS011;8713;48.388;10.928;2023-07-02T07:48:36;1.52;;;1.10;;
17193;SDS011;8713;48.388;10.928;2023-07-02T07:49:46;2.13;;;1.33;;
17193;SDS011;8713;48.388;10.928;2023-07-02T07:50:56;1.80;;;1.10;;
17193;SDS011;8713;48.388;10.928;2023-07-02T07:52:05;3.70;;;1.35;;
17193;SDS011;8713;48.388;10.928;2023-07-02T07:53:15;1.17;;;1.08;;
17193;SDS011;8713;48.388;10.928;2023-07-02T07:54:26;2.05;;;1.27;;
17193;SDS011;8713;48.388;10.928;2023-07-02T07:55:35;1.80;;;1.13;;
17193;SDS011;8713;48.388;10.928;2023-07-02T07:56:46;2.78;;;1.23;;
17193;SDS011;8713;48.388;10.928;2023-07-02T07:57:56;1.83;;;1.20;;
17193;SDS011;8713;48.388;10.928;2023-07-02T07:59:05;2.03;;;1.20;;
17193;SDS011;8713;48.388;10.928;2023-07-02T08:00:15;2.63;;;1.30;;
17193;SDS011;8713;48.388;10.928;2023-07-02T08:01:26;2.78;;;1.30;;
17193;SDS011;8713;48.388;10.928;2023-07-02T08:02:36;1.70;;;1.20;;
17193;SDS011;8713;48.388;10.928;2023-07-02T08:03:46;2.53;;;1.30;;
17193;SDS011;8713;48.388;10.928;2023-07-02T08:04:56;2.50;;;1.48;;
17193;SDS011;8713;48.388;10.928;2023-07-02T08:06:06;3.72;;;1.70;;
17193;SDS011;8713;48.388;10.928;2023-07-02T08:07:16;2.25;;;1.35;;
17193;SDS011;8713;48.388;10.928;2023-07-02T08:08:25;3.28;;;1.70;;
17193;SDS011;8713;48.388;10.928;2023-07-02T08:09:35;3.10;;;1.65;;
17193;SDS011;8713;48.388;10.928;2023-07-02T08:10:45;4.55;;;1.77;;
17193;SDS011;8713;48.388;10.928;2023-07-02T08:11:55;2.45;;;1.67;;
17193;SDS011;8713;48.388;10.928;2023-07-02T08:13:05;4.05;;;1.85;;
17193;SDS011;8713;48.388;10.928;2023-07-02T08:14:14;5.10;;;2.22;;
17193;SDS011;8713;48.388;10.928;2023-07-02T08:15:26;3.88;;;2.08;;
17193;SDS011;8713;48.388;10.928;2023-07-02T08:16:36;4.15;;;2.20;;
17193;SDS011;8713;48.388;10.928;2023-07-02T08:17:45;3.80;;;2.20;;
17193;SDS011;8713;48.388;10.928;2023-07-02T08:18:55;4.20;;;2.42;;
17193;SDS011;8713;48.388;10.928;2023-07-02T08:20:05;4.85;;;1.90;;
17193;SDS011;8713;48.388;10.928;2023-07-02T08:21:18;4.78;;;1.98;;
17193;SDS011;8713;48.388;10.928;2023-07-02T08:22:28;7.90;;;2.20;;
17193;SDS011;8713;48.388;10.928;2023-07-02T08:23:42;5.72;;;2.50;;
17193;SDS011;8713;48.388;10.928;2023-07-02T08:24:53;6.35;;;2.17;;
17193;SDS011;8713;48.388;10.928;2023-07-02T08:26:03;6.10;;;2.47;;
17193;SDS011;8713;48.388;10.928;2023-07-02T08:27:13;6.57;;;2.45;;
17193;SDS011;8713;48.388;10.928;2023-07-02T08:28:24;5.70;;;2.10;;
17193;SDS011;8713;48.388;10.928;2023-07-02T08:29:34;3.85;;;2.10;;
17193;SDS011;8713;48.388;10.928;2023-07-02T08:30:44;6.10;;;2.38;;
17193;SDS011;8713;48.388;10.928;2023-07-02T08:31:53;3.45;;;2.10;;
17193;SDS011;8713;48.388;10.928;2023-07-02T08:33:03;3.92;;;2.28;;
17193;SDS011;8713;48.388;10.928;2023-07-02T08:34:13;4.47;;;2.40;;
17193;SDS011;8713;48.388;10.928;2023-07-02T08:35:22;7.40;;;2.47;;
17193;SDS011;8713;48.388;10.928;2023-07-02T08:36:38;5.90;;;2.58;;
17193;SDS011;8713;48.388;10.928;2023-07-02T08:37:48;5.90;;;2.65;;
17193;SDS011;8713;48.388;10.928;2023-07-02T08:38:58;4.80;;;2.25;;
17193;SDS011;8713;48.388;10.928;2023-07-02T08:40:15;6.28;;;2.65;;
17193;SDS011;8713;48.388;10.928;2023-07-02T08:41:27;6.63;;;2.55;;
17193;SDS011;8713;48.388;10.928;2023-07-02T08:42:37;10.02;;;2.92;;
17193;SDS011;8713;48.388;10.928;2023-07-02T08:43:47;8.35;;;2.90;;
17193;SDS011;8713;48.388;10.928;2023-07-02T08:44:57;7.70;;;3.20;;
17193;SDS011;8713;48.388;10.928;2023-07-02T08:46:09;6.80;;;2.90;;
17193;SDS011;8713;48.388;10.928;2023-07-02T08:47:19;6.70;;;2.42;;
17193;SDS011;8713;48.388;10.928;2023-07-02T08:48:29;5.53;;;3.05;;
17193;SDS011;8713;48.388;10.928;2023-07-02T08:49:39;7.13;;;2.92;;
17193;SDS011;8713;48.388;10.928;2023-07-02T08:50:49;6.22;;;2.65;;
17193;SDS011;8713;48.388;10.928;2023-07-02T08:51:59;6.05;;;2.78;;
17193;SDS011;8713;48.388;10.928;2023-07-02T08:53:08;9.38;;;3.33;;
17193;SDS011;8713;48.388;10.928;2023-07-02T08:54:19;6.82;;;3.17;;
17193;SDS011;8713;48.388;10.928;2023-07-02T08:55:29;5.85;;;2.90;;
17193;SDS011;8713;48.388;10.928;2023-07-02T08:56:39;4.93;;;2.72;;
17193;SDS011;8713;48.388;10.928;2023-07-02T08:57:49;9.20;;;3.20;;
17193;SDS011;8713;48.388;10.928;2023-07-02T08:59:02;4.75;;;2.75;;
17193;SDS011;8713;48.388;10.928;2023-07-02T09:00:12;7.28;;;3.13;;
17193;SDS011;8713;48.388;10.928;2023-07-02T09:01:22;9.75;;;3.00;;
17193;SDS011;8713;48.388;10.928;2023-07-02T09:02:31;9.95;;;3.47;;
17193;SDS011;8713;48.388;10.928;2023-07-02T09:03:42;6.40;;;3.13;;
17193;SDS011;8713;48.388;10.928;2023-07-02T09:04:58;8.35;;;3.60;;
17193;SDS011;8713;48.388;10.928;2023-07-02T09:06:09;6.35;;;3.42;;
17193;SDS011;8713;48.388;10.928;2023-07-02T09:07:20;6.53;;;3.13;;
17193;SDS011;8713;48.388;10.928;2023-07-02T09:08:29;5.60;;;2.85;;
17193;SDS011;8713;48.388;10.928;2023-07-02T09:09:49;6.15;;;3.10;;
17193;SDS011;8713;48.388;10.928;2023-07-02T09:12:30;5.75;;;3.05;;
17193;SDS011;8713;48.388;10.928;2023-07-02T09:15:02;9.52;;;3.75;;
17193;SDS011;8713;48.388;10.928;2023-07-02T09:17:39;6.00;;;3.15;;
17193;SDS011;8713;48.388;10.928;2023-07-02T09:18:56;7.70;;;3.28;;
17193;SDS011;8713;48.388;10.928;2023-07-02T09:20:10;5.93;;;2.97;;
17193;SDS011;8713;48.388;10.928;2023-07-02T09:21:20;7.45;;;3.50;;
17193;SDS011;8713;48.388;10.928;2023-07-02T09:22:29;8.50;;;3.30;;
17193;SDS011;8713;48.388;10.928;2023-07-02T09:23:39;9.02;;;3.75;;
17193;SDS011;8713;48.388;10.928;2023-07-02T09:24:52;9.38;;;3.88;;
17193;SDS011;8713;48.388;10.928;2023-07-02T09:26:03;6.68;;;3.15;;
17193;SDS011;8713;48.388;10.928;2023-07-02T09:27:13;8.45;;;3.75;;
17193;SDS011;8713;48.388;10.928;2023-07-02T09:28:22;7.97;;;3.15;;
17193;SDS011;8713;48.388;10.928;2023-07-02T09:29:32;9.25;;;3.53;;
17193;SDS011;8713;48.388;10.928;2023-07-02T09:30:50;7.25;;;3.13;;
17193;SDS011;8713;48.388;10.928;2023-07-02T09:32:00;8.63;;;3.35;;
17193;SDS011;8713;48.388;10.928;2023-07-02T09:33:12;7.22;;;3.35;;
17193;SDS011;8713;48.388;10.928;2023-07-02T09:34:31;7.03;;;3.53;;
17193;SDS011;8713;48.388;10.928;2023-07-02T09:35:43;7.50;;;3.38;;
17193;SDS011;8713;48.388;10.928;2023-07-02T09:36:53;9.50;;;3.80;;
17193;SDS011;8713;48.388;10.928;2023-07-02T09:38:03;8.20;;;3.28;;
17193;SDS011;8713;48.388;10.928;2023-07-02T09:39:13;8.15;;;3.58;;
17193;SDS011;8713;48.388;10.928;2023-07-02T09:40:28;9.75;;;3.60;;
17193;SDS011;8713;48.388;10.928;2023-07-02T09:41:38;8.63;;;3.95;;
17193;SDS011;8713;48.388;10.928;2023-07-02T09:42:49;8.07;;;4.00;;
17193;SDS011;8713;48.388;10.928;2023-07-02T09:44:01;8.98;;;3.85;;
17193;SDS011;8713;48.388;10.928;2023-07-02T09:45:11;9.65;;;4.03;;
17193;SDS011;8713;48.388;10.928;2023-07-02T09:46:21;7.07;;;3.60;;
17193;SDS011;8713;48.388;10.928;2023-07-02T09:47:31;8.80;;;3.28;;
17193;SDS011;8713;48.388;10.928;2023-07-02T09:48:44;8.43;;;3.92;;
17193;SDS011;8713;48.388;10.928;2023-07-02T09:51:07;7.22;;;3.72;;
17193;SDS011;8713;48.388;10.928;2023-07-02T09:52:17;6.78;;;3.35;;
17193;SDS011;8713;48.388;10.928;2023-07-02T09:53:28;8.02;;;4.07;;
17193;SDS011;8713;48.388;10.928;2023-07-02T09:54:38;9.07;;;3.72;;
17193;SDS011;8713;48.388;10.928;2023-07-02T09:55:47;8.85;;;4.10;;
17193;SDS011;8713;48.388;10.928;2023-07-02T09:56:58;9.73;;;4.25;;
17193;SDS011;8713;48.388;10.928;2023-07-02T09:58:07;9.90;;;4.28;;
17193;SDS011;8713;48.388;10.928;2023-07-02T09:59:17;8.82;;;4.00;;
17193;SDS011;8713;48.388;10.928;2023-07-02T10:00:27;8.85;;;3.60;;
17193;SDS011;8713;48.388;10.928;2023-07-02T10:01:36;7.32;;;3.17;;
17193;SDS011;8713;48.388;10.928;2023-07-02T10:02:49;6.30;;;2.85;;
17193;SDS011;8713;48.388;10.928;2023-07-02T10:04:09;6.25;;;2.92;;
17193;SDS011;8713;48.388;10.928;2023-07-02T10:05:29;8.20;;;3.60;;
17193;SDS011;8713;48.388;10.928;2023-07-02T10:06:44;7.43;;;3.40;;
17193;SDS011;8713;48.388;10.928;2023-07-02T10:08:10;5.93;;;2.63;;
17193;SDS011;8713;48.388;10.928;2023-07-02T10:10:49;7.35;;;3.20;;
17193;SDS011;8713;48.388;10.928;2023-07-02T10:11:58;7.75;;;3.80;;
17193;SDS011;8713;48.388;10.928;2023-07-02T10:13:08;6.00;;;3.10;;
17193;SDS011;8713;48.388;10.928;2023-07-02T10:14:17;7.15;;;2.83;;
17193;SDS011;8713;48.388;10.928;2023-07-02T10:15:28;4.97;;;2.75;;
17193;SDS011;8713;48.388;10.928;2023-07-02T10:16:48;7.47;;;3.00;;
17193;SDS011;8713;48.388;10.928;2023-07-02T10:18:02;5.75;;;2.63;;
17193;SDS011;8713;48.388;10.928;2023-07-02T10:19:12;8.48;;;2.97;;
17193;SDS011;8713;48.388;10.928;2023-07-02T10:20:30;5.32;;;2.78;;
17193;SDS011;8713;48.388;10.928;2023-07-02T10:22:00;10.13;;;3.00;;
17193;SDS011;8713;48.388;10.928;2023-07-02T10:23:11;7.50;;;3.40;;
17193;SDS011;8713;48.388;10.928;2023-07-02T10:24:21;7.63;;;3.75;;
17193;SDS011;8713;48.388;10.928;2023-07-02T10:26:56;6.10;;;3.05;;
17193;SDS011;8713;48.388;10.928;2023-07-02T10:28:18;6.75;;;3.10;;
17193;SDS011;8713;48.388;10.928;2023-07-02T10:29:31;8.82;;;3.22;;
17193;SDS011;8713;48.388;10.928;2023-07-02T10:30:41;9.25;;;3.72;;
17193;SDS011;8713;48.388;10.928;2023-07-02T10:31:51;8.98;;;3.70;;
17193;SDS011;8713;48.388;10.928;2023-07-02T10:33:15;5.53;;;3.15;;
17193;SDS011;8713;48.388;10.928;2023-07-02T10:34:29;6.03;;;3.05;;
17193;SDS011;8713;48.388;10.928;2023-07-02T10:35:43;6.32;;;3.58;;
17193;SDS011;8713;48.388;10.928;2023-07-02T10:36:56;6.00;;;2.72;;
17193;SDS011;8713;48.388;10.928;2023-07-02T10:38:13;7.38;;;3.45;;
17193;SDS011;8713;48.388;10.928;2023-07-02T10:39:38;8.07;;;3.30;;
17193;SDS011;8713;48.388;10.928;2023-07-02T10:40:58;5.28;;;2.95;;
17193;SDS011;8713;48.388;10.928;2023-07-02T10:42:09;5.95;;;3.00;;
17193;SDS011;8713;48.388;10.928;2023-07-02T10:43:29;6.75;;;3.53;;
17193;SDS011;8713;48.388;10.928;2023-07-02T10:44:49;7.55;;;2.78;;
17193;SDS011;8713;48.388;10.928;2023-07-02T10:46:00;8.98;;;3.90;;
17193;SDS011;8713;48.388;10.928;2023-07-02T10:47:13;6.78;;;3.13;;
17193;SDS011;8713;48.388;10.928;2023-07-02T10:48:23;6.68;;;3.47;;
17193;SDS011;8713;48.388;10.928;2023-07-02T10:49:32;7.95;;;3.50;;
17193;SDS011;8713;48.388;10.928;2023-07-02T10:50:42;8.00;;;3.20;;
17193;SDS011;8713;48.388;10.928;2023-07-02T10:51:59;7.15;;;2.75;;
17193;SDS011;8713;48.388;10.928;2023-07-02T10:53:14;6.13;;;2.97;;
17193;SDS011;8713;48.388;10.928;2023-07-02T10:54:26;9.20;;;3.70;;
17193;SDS011;8713;48.388;10.928;2023-07-02T10:55:53;5.10;;;2.92;;
17193;SDS011;8713;48.388;10.928;2023-07-02T10:57:05;5.80;;;3.33;;
17193;SDS011;8713;48.388;10.928;2023-07-02T10:58:14;7.25;;;3.70;;
17193;SDS011;8713;48.388;10.928;2023-07-02T10:59:24;5.40;;;3.10;;
17193;SDS011;8713;48.388;10.928;2023-07-02T11:00:49;7.47;;;2.95;;
17193;SDS011;8713;48.388;10.928;2023-07-02T11:02:00;7.03;;;3.67;;
17193;SDS011;8713;48.388;10.928;2023-07-02T11:03:25;7.15;;;3.35;;
17193;SDS011;8713;48.388;10.928;2023-07-02T11:04:35;7.07;;;3.13;;
17193;SDS011;8713;48.388;10.928;2023-07-02T11:05:46;5.47;;;3.03;;
17193;SDS011;8713;48.388;10.928;2023-07-02T11:06:56;6.78;;;3.47;;
17193;SDS011;8713;48.388;10.928;2023-07-02T11:08:09;6.53;;;3.25;;
17193;SDS011;8713;48.388;10.928;2023-07-02T11:09:18;5.32;;;3.08;;
17193;SDS011;8713;48.388;10.928;2023-07-02T11:10:29;6.72;;;3.40;;
17193;SDS011;8713;48.388;10.928;2023-07-02T11:11:48;5.47;;;2.67;;
17193;SDS011;8713;48.388;10.928;2023-07-02T11:13:11;6.35;;;2.97;;
17193;SDS011;8713;48.388;10.928;2023-07-02T11:14:34;6.45;;;2.72;;
17193;SDS011;8713;48.388;10.928;2023-07-02T11:15:45;8.25;;;2.83;;
17193;SDS011;8713;48.388;10.928;2023-07-02T11:16:55;4.22;;;2.67;;
17193;SDS011;8713;48.388;10.928;2023-07-02T11:18:09;6.80;;;2.97;;
17193;SDS011;8713;48.388;10.928;2023-07-02T11:19:29;8.40;;;3.30;;
17193;SDS011;8713;48.388;10.928;2023-07-02T11:20:39;7.65;;;3.10;;
17193;SDS011;8713;48.388;10.928;2023-07-02T11:21:51;7.40;;;3.72;;
17193;SDS011;8713;48.388;10.928;2023-07-02T11:23:02;6.22;;;2.78;;
17193;SDS011;8713;48.388;10.928;2023-07-02T11:24:12;7.30;;;3.53;;
17193;SDS011;8713;48.388;10.928;2023-07-02T11:25:21;7.55;;;3.58;;
17193;SDS011;8713;48.388;10.928;2023-07-02T11:26:34;6.45;;;3.10;;
17193;SDS011;8713;48.388;10.928;2023-07-02T11:27:46;8.27;;;2.92;;
17193;SDS011;8713;48.388;10.928;2023-07-02T11:28:55;6.00;;;2.90;;
17193;SDS011;8713;48.388;10.928;2023-07-02T11:30:05;4.72;;;2.72;;
17193;SDS011;8713;48.388;10.928;2023-07-02T11:31:23;6.57;;;2.95;;
17193;SDS011;8713;48.388;10.928;2023-07-02T11:32:45;6.03;;;3.47;;
17193;SDS011;8713;48.388;10.928;2023-07-02T11:33:59;6.88;;;3.08;;
17193;SDS011;8713;48.388;10.928;2023-07-02T11:35:10;7.82;;;4.07;;
17193;SDS011;8713;48.388;10.928;2023-07-02T11:36:20;6.97;;;3.58;;
17193;SDS011;8713;48.388;10.928;2023-07-02T11:37:33;7.82;;;3.20;;
17193;SDS011;8713;48.388;10.928;2023-07-02T11:38:42;6.97;;;3.83;;
17193;SDS011;8713;48.388;10.928;2023-07-02T11:39:52;6.25;;;3.20;;
17193;SDS011;8713;48.388;10.928;2023-07-02T11:41:04;10.13;;;3.97;;
17193;SDS011;8713;48.388;10.928;2023-07-02T11:42:14;8.85;;;4.50;;
17193;SDS011;8713;48.388;10.928;2023-07-02T11:43:24;9.68;;;4.03;;
17193;SDS011;8713;48.388;10.928;2023-07-02T11:44:35;9.35;;;3.95;;
17193;SDS011;8713;48.388;10.928;2023-07-02T11:45:44;7.57;;;3.58;;
17193;SDS011;8713;48.388;10.928;2023-07-02T11:46:54;9.40;;;3.97;;
17193;SDS011;8713;48.388;10.928;2023-07-02T11:48:06;7.30;;;3.50;;
17193;SDS011;8713;48.388;10.928;2023-07-02T11:49:16;6.00;;;3.50;;
17193;SDS011;8713;48.388;10.928;2023-07-02T11:50:25;7.47;;;3.50;;
17193;SDS011;8713;48.388;10.928;2023-07-02T11:51:36;6.90;;;3.72;;
17193;SDS011;8713;48.388;10.928;2023-07-02T11:52:47;8.00;;;3.88;;
17193;SDS011;8713;48.388;10.928;2023-07-02T11:53:56;8.32;;;3.75;;
17193;SDS011;8713;48.388;10.928;2023-07-02T11:55:06;6.97;;;3.85;;
17193;SDS011;8713;48.388;10.928;2023-07-02T11:56:16;8.45;;;4.18;;
17193;SDS011;8713;48.388;10.928;2023-07-02T11:57:25;6.10;;;3.28;;
17193;SDS011;8713;48.388;10.928;2023-07-02T11:58:35;6.82;;;4.05;;
17193;SDS011;8713;48.388;10.928;2023-07-02T11:59:45;8.15;;;3.80;;
17193;SDS011;8713;48.388;10.928;2023-07-02T12:00:54;8.30;;;3.65;;
17193;SDS011;8713;48.388;10.928;2023-07-02T12:02:03;7.22;;;3.67;;
17193;SDS011;8713;48.388;10.928;2023-07-02T12:03:13;7.95;;;3.70;;
17193;SDS011;8713;48.388;10.928;2023-07-02T12:04:23;6.88;;;3.85;;
17193;SDS011;8713;48.388;10.928;2023-07-02T12:05:32;6.10;;;3.50;;
17193;SDS011;8713;48.388;10.928;2023-07-02T12:06:42;6.40;;;3.50;;
17193;SDS011;8713;48.388;10.928;2023-07-02T12:07:51;10.10;;;4.57;;
17193;SDS011;8713;48.388;10.928;2023-07-02T12:09:02;9.18;;;4.32;;
17193;SDS011;8713;48.388;10.928;2023-07-02T12:10:11;8.80;;;4.32;;
17193;SDS011;8713;48.388;10.928;2023-07-02T12:11:21;10.10;;;4.22;;
17193;SDS011;8713;48.388;10.928;2023-07-02T12:12:31;8.10;;;4.15;;
17193;SDS011;8713;48.388;10.928;2023-07-02T12:13:40;7.93;;;3.95;;
17193;SDS011;8713;48.388;10.928;2023-07-02T12:14:50;8.60;;;4.05;;
17193;SDS011;8713;48.388;10.928;2023-07-02T12:16:00;9.25;;;4.47;;
17193;SDS011;8713;48.388;10.928;2023-07-02T12:17:10;9.20;;;3.90;;
17193;SDS011;8713;48.388;10.928;2023-07-02T12:18:22;10.25;;;3.67;;
17193;SDS011;8713;48.388;10.928;2023-07-02T12:19:32;7.55;;;3.58;;
17193;SDS011;8713;48.388;10.928;2023-07-02T12:20:41;8.68;;;3.80;;
17193;SDS011;8713;48.388;10.928;2023-07-02T12:21:51;7.15;;;3.85;;
17193;SDS011;8713;48.388;10.928;2023-07-02T12:23:01;9.90;;;4.65;;
17193;SDS011;8713;48.388;10.928;2023-07-02T12:24:10;8.30;;;4.15;;
17193;SDS011;8713;48.388;10.928;2023-07-02T12:25:20;9.45;;;4.68;;